sensor_id;sensor_type;location;lat;lon;timestamp;temperature;humidity
19252;DHT22;9760;50.944;5.304;2023-07-08T00:00:22;20.70;99.90
19252;DHT22;9760;50.944;5.304;2023-07-08T00:02:48;20.70;99.90
19252;DHT22;9760;50.944;5.304;2023-07-08T00:05:16;20.70;99.90
19252;DHT22;9760;50.944;5.304;2023-07-08T00:07:43;20.70;99.90
19252;DHT22;9760;50.944;5.304;2023-07-08T00:10:14;20.60;99.90
19252;DHT22;9760;50.944;5.304;2023-07-08T00:12:41;20.60;99.90
19252;DHT22;9760;50.944;5.304;2023-07-08T00:15:08;20.60;99.90
19252;DHT22;9760;50.944;5.304;2023-07-08T00:17:34;20.60;99.90
19252;DHT22;9760;50.944;5.304;2023-07-08T00:19:59;20.60;99.90
19252;DHT22;9760;50.944;5.304;2023-07-08T00:22:25;20.40;99.90
19252;DHT22;9760;50.944;5.304;2023-07-08T00:24:51;20.50;99.90
19252;DHT22;9760;50.944;5.304;2023-07-08T00:27:17;20.60;99.90
19252;DHT22;9760;50.944;5.304;2023-07-08T00:29:43;20.50;99.90
19252;DHT22;9760;50.944;5.304;2023-07-08T00:32:14;20.40;99.90
19252;DHT22;9760;50.944;5.304;2023-07-08T00:34:40;20.30;99.90
19252;DHT22;9760;50.944;5.304;2023-07-08T00:37:10;20.30;99.90
19252;DHT22;9760;50.944;5.304;2023-07-08T00:39:36;20.20;99.90
19252;DHT22;9760;50.944;5.304;2023-07-08T00:42:10;20.30;99.90
19252;DHT22;9760;50.944;5.304;2023-07-08T00:44:38;20.30;99.90
19252;DHT22;9760;50.944;5.304;2023-07-08T00:47:09;20.30;99.90
19252;DHT22;9760;50.944;5.304;2023-07-08T00:49:40;20.20;99.90
19252;DHT22;9760;50.944;5.304;2023-07-08T00:52:25;20.20;99.90
19252;DHT22;9760;50.944;5.304;2023-07-08T00:54:53;20.20;99.90
19252;DHT22;9760;50.944;5.304;2023-07-08T00:57:20;20.20;99.90
19252;DHT22;9760;50.944;5.304;2023-07-08T01:00:05;20.10;99.90
19252;DHT22;9760;50.944;5.304;2023-07-08T01:02:38;19.90;99.90
19252;DHT22;9760;50.944;5.304;2023-07-08T01:05:11;19.70;99.90
19252;DHT22;9760;50.944;5.304;2023-07-08T01:07:41;19.60;99.90
19252;DHT22;9760;50.944;5.304;2023-07-08T01:10:12;19.60;99.90
19252;DHT22;9760;50.944;5.304;2023-07-08T01:12:45;19.50;99.90
19252;DHT22;9760;50.944;5.304;2023-07-08T01:15:12;19.40;99.90
19252;DHT22;9760;50.944;5.304;2023-07-08T01:17:41;19.40;99.90
19252;DHT22;9760;50.944;5.304;2023-07-08T01:20:07;19.50;99.90
19252;DHT22;9760;50.944;5.304;2023-07-08T01:22:39;19.40;99.90
19252;DHT22;9760;50.944;5.304;2023-07-08T01:25:05;19.30;99.90
19252;DHT22;9760;50.944;5.304;2023-07-08T01:27:35;19.30;99.90
19252;DHT22;9760;50.944;5.304;2023-07-08T01:30:03;18.90;99.90
19252;DHT22;9760;50.944;5.304;2023-07-08T01:32:32;18.90;99.90
19252;DHT22;9760;50.944;5.304;2023-07-08T01:35:00;19.10;99.90
19252;DHT22;9760;50.944;5.304;2023-07-08T01:37:34;19.20;99.90
19252;DHT22;9760;50.944;5.304;2023-07-08T01:40:28;19.30;99.90
19252;DHT22;9760;50.944;5.304;2023-07-08T01:42:54;19.20;99.90
19252;DHT22;9760;50.944;5.304;2023-07-08T01:45:22;19.30;99.90
19252;DHT22;9760;50.944;5.304;2023-07-08T01:48:10;19.20;99.90
19252;DHT22;9760;50.944;5.304;2023-07-08T01:50:43;19.10;99.90
19252;DHT22;9760;50.944;5.304;2023-07-08T01:53:20;19.20;99.90
19252;DHT22;9760;50.944;5.304;2023-07-08T01:55:46;19.20;99.90
19252;DHT22;9760;50.944;5.304;2023-07-08T01:58:12;19.20;99.90
19252;DHT22;9760;50.944;5.304;2023-07-08T02:00:38;19.20;99.90
19252;DHT22;9760;50.944;5.304;2023-07-08T02:03:03;19.20;99.90
19252;DHT22;9760;50.944;5.304;2023-07-08T02:05:29;19.40;99.90
19252;DHT22;9760;50.944;5.304;2023-07-08T02:07:55;19.40;99.90
19252;DHT22;9760;50.944;5.304;2023-07-08T02:10:21;19.40;99.90
19252;DHT22;9760;50.944;5.304;2023-07-08T02:12:47;19.20;99.90
19252;DHT22;9760;50.944;5.304;2023-07-08T02:15:13;19.10;99.90
19252;DHT22;9760;50.944;5.304;2023-07-08T02:17:38;18.90;99.90
19252;DHT22;9760;50.944;5.304;2023-07-08T02:20:05;18.90;99.90
19252;DHT22;9760;50.944;5.304;2023-07-08T02:22:30;18.90;99.90
19252;DHT22;9760;50.944;5.304;2023-07-08T02:24:56;18.90;99.90
19252;DHT22;9760;50.944;5.304;2023-07-08T02:27:22;18.80;99.90
19252;DHT22;9760;50.944;5.304;2023-07-08T02:29:47;18.80;99.90
19252;DHT22;9760;50.944;5.304;2023-07-08T02:32:13;18.80;99.90
19252;DHT22;9760;50.944;5.304;2023-07-08T02:34:39;18.80;99.90
19252;DHT22;9760;50.944;5.304;2023-07-08T02:37:04;18.80;99.90
19252;DHT22;9760;50.944;5.304;2023-07-08T02:39:30;18.70;99.90
19252;DHT22;9760;50.944;5.304;2023-07-08T02:41:56;18.70;99.90
19252;DHT22;9760;50.944;5.304;2023-07-08T02:44:22;18.70;99.90
19252;DHT22;9760;50.944;5.304;2023-07-08T02:46:48;18.80;99.90
19252;DHT22;9760;50.944;5.304;2023-07-08T02:49:13;18.80;99.90
19252;DHT22;9760;50.944;5.304;2023-07-08T02:51:39;18.70;99.90
19252;DHT22;9760;50.944;5.304;2023-07-08T02:54:04;18.70;99.90
19252;DHT22;9760;50.944;5.304;2023-07-08T02:56:30;18.80;99.90
19252;DHT22;9760;50.944;5.304;2023-07-08T02:58:56;18.80;99.90
19252;DHT22;9760;50.944;5.304;2023-07-08T03:01:21;18.80;99.90
19252;DHT22;9760;50.944;5.304;2023-07-08T03:03:48;18.80;99.90
19252;DHT22;9760;50.944;5.304;2023-07-08T03:06:15;18.70;99.90
19252;DHT22;9760;50.944;5.304;2023-07-08T03:08:41;18.70;99.90
19252;DHT22;9760;50.944;5.304;2023-07-08T03:11:07;18.70;99.90
19252;DHT22;9760;50.944;5.304;2023-07-08T03:13:34;18.70;99.90
19252;DHT22;9760;50.944;5.304;2023-07-08T03:16:01;18.70;99.90
19252;DHT22;9760;50.944;5.304;2023-07-08T03:18:28;18.50;99.90
19252;DHT22;9760;50.944;5.304;2023-07-08T03:20:55;18.40;99.90
19252;DHT22;9760;50.944;5.304;2023-07-08T03:23:22;18.30;99.90
19252;DHT22;9760;50.944;5.304;2023-07-08T03:25:47;18.30;99.90
19252;DHT22;9760;50.944;5.304;2023-07-08T03:28:13;18.30;99.90
19252;DHT22;9760;50.944;5.304;2023-07-08T03:30:44;18.30;99.90
19252;DHT22;9760;50.944;5.304;2023-07-08T03:33:11;18.40;99.90
19252;DHT22;9760;50.944;5.304;2023-07-08T03:35:37;18.60;99.90
19252;DHT22;9760;50.944;5.304;2023-07-08T03:38:04;18.70;99.90
19252;DHT22;9760;50.944;5.304;2023-07-08T03:40:30;18.60;99.90
19252;DHT22;9760;50.944;5.304;2023-07-08T03:42:56;18.60;99.90
19252;DHT22;9760;50.944;5.304;2023-07-08T03:45:22;18.60;99.90
19252;DHT22;9760;50.944;5.304;2023-07-08T03:47:48;18.60;99.90
19252;DHT22;9760;50.944;5.304;2023-07-08T03:50:24;18.50;99.90
19252;DHT22;9760;50.944;5.304;2023-07-08T03:52:52;18.60;99.90
19252;DHT22;9760;50.944;5.304;2023-07-08T03:55:18;18.60;99.90
19252;DHT22;9760;50.944;5.304;2023-07-08T03:57:44;18.50;99.90
19252;DHT22;9760;50.944;5.304;2023-07-08T04:00:11;18.60;99.90
19252;DHT22;9760;50.944;5.304;2023-07-08T04:02:41;18.60;99.90
19252;DHT22;9760;50.944;5.304;2023-07-08T04:05:14;18.60;99.90
19252;DHT22;9760;50.944;5.304;2023-07-08T04:07:40;18.60;99.90
19252;DHT22;9760;50.944;5.304;2023-07-08T04:10:07;18.60;99.90
19252;DHT22;9760;50.944;5.304;2023-07-08T04:12:32;18.50;99.90
19252;DHT22;9760;50.944;5.304;2023-07-08T04:14:58;18.40;99.90
19252;DHT22;9760;50.944;5.304;2023-07-08T04:17:24;18.40;99.90
19252;DHT22;9760;50.944;5.304;2023-07-08T04:19:50;18.40;99.90
19252;DHT22;9760;50.944;5.304;2023-07-08T04:22:16;18.40;99.90
19252;DHT22;9760;50.944;5.304;2023-07-08T04:24:42;18.40;99.90
19252;DHT22;9760;50.944;5.304;2023-07-08T04:27:13;18.40;99.90
19252;DHT22;9760;50.944;5.304;2023-07-08T04:29:40;18.40;99.90
19252;DHT22;9760;50.944;5.304;2023-07-08T04:32:06;18.40;99.90
19252;DHT22;9760;50.944;5.304;2023-07-08T04:34:32;18.40;99.90
19252;DHT22;9760;50.944;5.304;2023-07-08T04:36:58;18.40;99.90
19252;DHT22;9760;50.944;5.304;2023-07-08T04:39:24;18.60;99.90
19252;DHT22;9760;50.944;5.304;2023-07-08T04:41:49;18.60;99.90
19252;DHT22;9760;50.944;5.304;2023-07-08T04:44:15;18.50;99.90
19252;DHT22;9760;50.944;5.304;2023-07-08T04:47:11;18.40;99.90
19252;DHT22;9760;50.944;5.304;2023-07-08T04:49:39;18.30;99.90
19252;DHT22;9760;50.944;5.304;2023-07-08T04:52:09;18.40;99.90
19252;DHT22;9760;50.944;5.304;2023-07-08T04:54:34;18.30;99.90
19252;DHT22;9760;50.944;5.304;2023-07-08T04:57:00;18.40;99.90
19252;DHT22;9760;50.944;5.304;2023-07-08T04:59:25;18.40;99.90
19252;DHT22;9760;50.944;5.304;2023-07-08T05:01:52;18.50;99.90
19252;DHT22;9760;50.944;5.304;2023-07-08T05:04:20;18.70;99.90
19252;DHT22;9760;50.944;5.304;2023-07-08T05:06:47;18.80;99.90
19252;DHT22;9760;50.944;5.304;2023-07-08T05:09:12;18.90;99.90
19252;DHT22;9760;50.944;5.304;2023-07-08T05:11:38;19.10;99.90
19252;DHT22;9760;50.944;5.304;2023-07-08T05:14:05;19.10;99.90
19252;DHT22;9760;50.944;5.304;2023-07-08T05:16:33;19.30;99.90
19252;DHT22;9760;50.944;5.304;2023-07-08T05:18:59;19.50;99.90
19252;DHT22;9760;50.944;5.304;2023-07-08T05:21:24;19.60;99.90
19252;DHT22;9760;50.944;5.304;2023-07-08T05:23:52;19.70;99.90
19252;DHT22;9760;50.944;5.304;2023-07-08T05:26:19;19.90;99.90
19252;DHT22;9760;50.944;5.304;2023-07-08T05:28:45;20.00;99.90
19252;DHT22;9760;50.944;5.304;2023-07-08T05:31:10;20.10;99.90
19252;DHT22;9760;50.944;5.304;2023-07-08T05:33:36;20.20;99.90
19252;DHT22;9760;50.944;5.304;2023-07-08T05:36:02;20.30;99.90
19252;DHT22;9760;50.944;5.304;2023-07-08T05:38:28;20.40;99.90
19252;DHT22;9760;50.944;5.304;2023-07-08T05:40:55;20.50;99.90
19252;DHT22;9760;50.944;5.304;2023-07-08T05:43:21;20.60;99.90
19252;DHT22;9760;50.944;5.304;2023-07-08T05:45:47;20.70;99.90
19252;DHT22;9760;50.944;5.304;2023-07-08T05:48:13;20.70;99.90
19252;DHT22;9760;50.944;5.304;2023-07-08T05:50:39;20.80;99.90
19252;DHT22;9760;50.944;5.304;2023-07-08T05:53:05;21.00;99.90
19252;DHT22;9760;50.944;5.304;2023-07-08T05:55:32;21.10;99.90
19252;DHT22;9760;50.944;5.304;2023-07-08T05:57:57;21.20;99.90
19252;DHT22;9760;50.944;5.304;2023-07-08T06:00:23;21.20;99.90
19252;DHT22;9760;50.944;5.304;2023-07-08T06:02:49;21.30;99.90
19252;DHT22;9760;50.944;5.304;2023-07-08T06:05:14;21.40;99.90
19252;DHT22;9760;50.944;5.304;2023-07-08T06:07:40;21.50;99.90
19252;DHT22;9760;50.944;5.304;2023-07-08T06:10:06;21.60;99.90
19252;DHT22;9760;50.944;5.304;2023-07-08T06:12:32;21.70;99.90
19252;DHT22;9760;50.944;5.304;2023-07-08T06:14:58;21.80;99.90
19252;DHT22;9760;50.944;5.304;2023-07-08T06:17:24;21.90;99.90
19252;DHT22;9760;50.944;5.304;2023-07-08T06:19:50;22.00;99.90
19252;DHT22;9760;50.944;5.304;2023-07-08T06:22:15;22.10;99.90
19252;DHT22;9760;50.944;5.304;2023-07-08T06:24:41;22.10;99.90
19252;DHT22;9760;50.944;5.304;2023-07-08T06:27:07;22.20;99.90
19252;DHT22;9760;50.944;5.304;2023-07-08T06:29:33;22.20;99.90
19252;DHT22;9760;50.944;5.304;2023-07-08T06:32:00;22.30;99.90
19252;DHT22;9760;50.944;5.304;2023-07-08T06:34:25;22.40;99.90
19252;DHT22;9760;50.944;5.304;2023-07-08T06:36:51;22.40;99.90
19252;DHT22;9760;50.944;5.304;2023-07-08T06:39:17;22.60;99.90
19252;DHT22;9760;50.944;5.304;2023-07-08T06:41:43;22.70;99.90
19252;DHT22;9760;50.944;5.304;2023-07-08T06:44:09;22.90;99.90
19252;DHT22;9760;50.944;5.304;2023-07-08T06:46:35;22.90;99.90
19252;DHT22;9760;50.944;5.304;2023-07-08T06:49:00;23.00;99.90
19252;DHT22;9760;50.944;5.304;2023-07-08T06:51:27;23.10;99.90
19252;DHT22;9760;50.944;5.304;2023-07-08T06:53:53;23.20;99.90
19252;DHT22;9760;50.944;5.304;2023-07-08T06:56:18;23.30;99.90
19252;DHT22;9760;50.944;5.304;2023-07-08T06:58:44;23.40;99.90
19252;DHT22;9760;50.944;5.304;2023-07-08T07:01:10;23.60;99.90
19252;DHT22;9760;50.944;5.304;2023-07-08T07:03:35;23.60;99.90
19252;DHT22;9760;50.944;5.304;2023-07-08T07:06:01;23.80;99.90
19252;DHT22;9760;50.944;5.304;2023-07-08T07:08:26;23.90;99.90
19252;DHT22;9760;50.944;5.304;2023-07-08T07:10:52;24.00;99.90
19252;DHT22;9760;50.944;5.304;2023-07-08T07:13:18;24.10;99.90
19252;DHT22;9760;50.944;5.304;2023-07-08T07:15:44;24.20;99.90
19252;DHT22;9760;50.944;5.304;2023-07-08T07:18:09;24.20;99.90
19252;DHT22;9760;50.944;5.304;2023-07-08T07:20:36;24.30;99.90
19252;DHT22;9760;50.944;5.304;2023-07-08T07:23:03;24.50;99.90
19252;DHT22;9760;50.944;5.304;2023-07-08T07:25:28;24.60;99.90
19252;DHT22;9760;50.944;5.304;2023-07-08T07:27:54;24.60;99.90
19252;DHT22;9760;50.944;5.304;2023-07-08T07:30:20;24.70;99.90
19252;DHT22;9760;50.944;5.304;2023-07-08T07:32:45;24.80;99.90
19252;DHT22;9760;50.944;5.304;2023-07-08T07:35:12;24.90;99.90
19252;DHT22;9760;50.944;5.304;2023-07-08T07:37:39;25.00;99.90
19252;DHT22;9760;50.944;5.304;2023-07-08T07:40:10;25.10;99.90
19252;DHT22;9760;50.944;5.304;2023-07-08T07:42:38;25.10;99.90
19252;DHT22;9760;50.944;5.304;2023-07-08T07:45:06;25.30;99.90
19252;DHT22;9760;50.944;5.304;2023-07-08T07:47:31;25.40;99.90
19252;DHT22;9760;50.944;5.304;2023-07-08T07:49:57;25.50;99.90
19252;DHT22;9760;50.944;5.304;2023-07-08T07:52:24;25.50;99.90
19252;DHT22;9760;50.944;5.304;2023-07-08T07:54:53;25.60;99.90
19252;DHT22;9760;50.944;5.304;2023-07-08T07:57:19;25.70;99.90
19252;DHT22;9760;50.944;5.304;2023-07-08T07:59:46;25.70;99.90
19252;DHT22;9760;50.944;5.304;2023-07-08T08:02:11;25.70;99.90
19252;DHT22;9760;50.944;5.304;2023-07-08T08:04:37;25.80;99.90
19252;DHT22;9760;50.944;5.304;2023-07-08T08:07:03;25.90;99.90
19252;DHT22;9760;50.944;5.304;2023-07-08T08:09:29;26.00;99.90
19252;DHT22;9760;50.944;5.304;2023-07-08T08:11:54;26.10;99.90
19252;DHT22;9760;50.944;5.304;2023-07-08T08:14:20;26.20;99.90
19252;DHT22;9760;50.944;5.304;2023-07-08T08:16:46;26.20;99.90
19252;DHT22;9760;50.944;5.304;2023-07-08T08:19:12;26.30;99.90
19252;DHT22;9760;50.944;5.304;2023-07-08T08:21:37;26.40;99.90
19252;DHT22;9760;50.944;5.304;2023-07-08T08:24:03;26.50;99.90
19252;DHT22;9760;50.944;5.304;2023-07-08T08:26:29;26.70;99.90
19252;DHT22;9760;50.944;5.304;2023-07-08T08:28:55;26.80;99.90
19252;DHT22;9760;50.944;5.304;2023-07-08T08:31:20;26.90;99.90
19252;DHT22;9760;50.944;5.304;2023-07-08T08:33:46;27.00;99.90
19252;DHT22;9760;50.944;5.304;2023-07-08T08:36:12;27.00;99.90
19252;DHT22;9760;50.944;5.304;2023-07-08T08:38:37;27.00;99.90
19252;DHT22;9760;50.944;5.304;2023-07-08T08:41:29;27.10;99.90
19252;DHT22;9760;50.944;5.304;2023-07-08T08:43:55;27.40;99.90
19252;DHT22;9760;50.944;5.304;2023-07-08T08:51:48;27.70;99.90
19252;DHT22;9760;50.944;5.304;2023-07-08T08:54:14;27.80;99.90
19252;DHT22;9760;50.944;5.304;2023-07-08T09:01:49;28.20;99.90
19252;DHT22;9760;50.944;5.304;2023-07-08T09:04:35;28.20;99.90
19252;DHT22;9760;50.944;5.304;2023-07-08T09:07:12;28.20;99.90
19252;DHT22;9760;50.944;5.304;2023-07-08T09:09:47;28.30;99.90
19252;DHT22;9760;50.944;5.304;2023-07-08T09:12:20;28.40;99.90
19252;DHT22;9760;50.944;5.304;2023-07-08T09:14:47;28.40;99.90
19252;DHT22;9760;50.944;5.304;2023-07-08T09:17:17;28.70;99.90
19252;DHT22;9760;50.944;5.304;2023-07-08T09:20:22;28.80;99.90
19252;DHT22;9760;50.944;5.304;2023-07-08T09:22:46;28.90;99.90
19252;DHT22;9760;50.944;5.304;2023-07-08T09:25:28;29.00;99.90
19252;DHT22;9760;50.944;5.304;2023-07-08T09:27:54;28.90;99.90
19252;DHT22;9760;50.944;5.304;2023-07-08T09:30:22;28.90;99.90
19252;DHT22;9760;50.944;5.304;2023-07-08T09:32:50;28.90;99.90
19252;DHT22;9760;50.944;5.304;2023-07-08T09:35:21;28.90;99.90
19252;DHT22;9760;50.944;5.304;2023-07-08T09:37:47;28.90;99.90
19252;DHT22;9760;50.944;5.304;2023-07-08T09:40:22;29.10;99.90
19252;DHT22;9760;50.944;5.304;2023-07-08T09:42:53;29.30;99.90
19252;DHT22;9760;50.944;5.304;2023-07-08T09:45:23;29.50;99.90
19252;DHT22;9760;50.944;5.304;2023-07-08T09:47:54;29.50;99.90
19252;DHT22;9760;50.944;5.304;2023-07-08T09:50:21;29.70;99.90
19252;DHT22;9760;50.944;5.304;2023-07-08T09:52:48;29.70;99.90
19252;DHT22;9760;50.944;5.304;2023-07-08T09:55:14;29.70;99.90
19252;DHT22;9760;50.944;5.304;2023-07-08T09:57:40;29.60;99.90
19252;DHT22;9760;50.944;5.304;2023-07-08T10:00:14;29.60;99.90
19252;DHT22;9760;50.944;5.304;2023-07-08T10:02:57;29.70;99.90
19252;DHT22;9760;50.944;5.304;2023-07-08T10:05:36;29.90;99.90
19252;DHT22;9760;50.944;5.304;2023-07-08T10:08:15;29.90;99.90
19252;DHT22;9760;50.944;5.304;2023-07-08T10:10:42;30.00;99.90
19252;DHT22;9760;50.944;5.304;2023-07-08T10:18:41;30.40;99.90
19252;DHT22;9760;50.944;5.304;2023-07-08T10:23:55;30.30;99.90
19252;DHT22;9760;50.944;5.304;2023-07-08T10:32:05;30.90;99.90
19252;DHT22;9760;50.944;5.304;2023-07-08T10:37:35;30.80;99.90
19252;DHT22;9760;50.944;5.304;2023-07-08T10:43:14;31.50;99.90
19252;DHT22;9760;50.944;5.304;2023-07-08T10:56:24;33.80;99.90
19252;DHT22;9760;50.944;5.304;2023-07-08T10:59:07;34.70;99.90
19252;DHT22;9760;50.944;5.304;2023-07-08T11:02:02;35.90;99.90
19252;DHT22;9760;50.944;5.304;2023-07-08T11:04:45;35.90;99.90
19252;DHT22;9760;50.944;5.304;2023-07-08T11:07:30;36.10;99.90
19252;DHT22;9760;50.944;5.304;2023-07-08T11:10:02;36.40;99.90
19252;DHT22;9760;50.944;5.304;2023-07-08T11:12:40;36.30;99.70
19252;DHT22;9760;50.944;5.304;2023-07-08T11:18:00;36.80;98.80
19252;DHT22;9760;50.944;5.304;2023-07-08T11:23:25;37.90;98.10
19252;DHT22;9760;50.944;5.304;2023-07-08T11:25:55;37.90;96.30
19252;DHT22;9760;50.944;5.304;2023-07-08T11:28:24;37.60;95.50
19252;DHT22;9760;50.944;5.304;2023-07-08T11:30:51;36.80;95.80
19252;DHT22;9760;50.944;5.304;2023-07-08T11:33:23;36.80;95.50
19252;DHT22;9760;50.944;5.304;2023-07-08T11:35:52;36.50;95.50
19252;DHT22;9760;50.944;5.304;2023-07-08T11:38:22;36.50;96.10
19252;DHT22;9760;50.944;5.304;2023-07-08T11:40:59;36.80;95.20
19252;DHT22;9760;50.944;5.304;2023-07-08T11:43:33;37.10;93.40
19252;DHT22;9760;50.944;5.304;2023-07-08T11:46:04;37.20;94.20
19252;DHT22;9760;50.944;5.304;2023-07-08T11:48:45;37.80;93.90
19252;DHT22;9760;50.944;5.304;2023-07-08T11:51:18;38.20;93.30
19252;DHT22;9760;50.944;5.304;2023-07-08T11:53:50;37.90;93.60
19252;DHT22;9760;50.944;5.304;2023-07-08T11:56:24;37.70;94.40
19252;DHT22;9760;50.944;5.304;2023-07-08T12:03:53;38.90;93.50
19252;DHT22;9760;50.944;5.304;2023-07-08T12:06:44;38.10;93.90
19252;DHT22;9760;50.944;5.304;2023-07-08T12:11:43;38.20;93.10
19252;DHT22;9760;50.944;5.304;2023-07-08T12:14:10;36.40;93.50
19252;DHT22;9760;50.944;5.304;2023-07-08T12:16:36;36.40;93.40
19252;DHT22;9760;50.944;5.304;2023-07-08T12:19:04;36.80;93.20
19252;DHT22;9760;50.944;5.304;2023-07-08T12:21:34;36.80;92.70
19252;DHT22;9760;50.944;5.304;2023-07-08T12:24:05;36.60;92.20
19252;DHT22;9760;50.944;5.304;2023-07-08T12:26:34;37.00;91.70
19252;DHT22;9760;50.944;5.304;2023-07-08T12:29:00;36.20;91.90
19252;DHT22;9760;50.944;5.304;2023-07-08T12:31:26;36.40;90.80
19252;DHT22;9760;50.944;5.304;2023-07-08T12:33:52;36.40;91.30
19252;DHT22;9760;50.944;5.304;2023-07-08T12:36:18;36.30;93.20
19252;DHT22;9760;50.944;5.304;2023-07-08T12:38:45;37.00;92.80
19252;DHT22;9760;50.944;5.304;2023-07-08T12:41:21;37.30;92.20
19252;DHT22;9760;50.944;5.304;2023-07-08T12:43:47;36.50;93.00
19252;DHT22;9760;50.944;5.304;2023-07-08T12:46:14;36.20;93.00
19252;DHT22;9760;50.944;5.304;2023-07-08T12:48:41;36.80;92.30
19252;DHT22;9760;50.944;5.304;2023-07-08T12:51:12;37.10;91.30
19252;DHT22;9760;50.944;5.304;2023-07-08T12:53:38;36.80;92.30
19252;DHT22;9760;50.944;5.304;2023-07-08T12:56:05;37.10;91.00
19252;DHT22;9760;50.944;5.304;2023-07-08T12:58:34;36.50;91.10
19252;DHT22;9760;50.944;5.304;2023-07-08T13:01:02;36.60;91.80
19252;DHT22;9760;50.944;5.304;2023-07-08T13:03:32;36.50;91.70
19252;DHT22;9760;50.944;5.304;2023-07-08T13:06:01;35.80;92.20
19252;DHT22;9760;50.944;5.304;2023-07-08T13:08:30;35.90;90.90
19252;DHT22;9760;50.944;5.304;2023-07-08T13:10:59;35.50;91.30
19252;DHT22;9760;50.944;5.304;2023-07-08T13:13:31;35.40;92.50
19252;DHT22;9760;50.944;5.304;2023-07-08T13:15:57;35.10;92.70
19252;DHT22;9760;50.944;5.304;2023-07-08T13:18:34;34.90;92.20
19252;DHT22;9760;50.944;5.304;2023-07-08T13:21:00;34.50;92.90
19252;DHT22;9760;50.944;5.304;2023-07-08T13:23:27;34.20;94.10
19252;DHT22;9760;50.944;5.304;2023-07-08T13:25:54;33.90;93.80
19252;DHT22;9760;50.944;5.304;2023-07-08T13:31:01;33.40;95.80
19252;DHT22;9760;50.944;5.304;2023-07-08T13:33:32;33.00;96.00
19252;DHT22;9760;50.944;5.304;2023-07-08T13:35:58;32.80;95.50
19252;DHT22;9760;50.944;5.304;2023-07-08T13:38:32;32.90;94.30
19252;DHT22;9760;50.944;5.304;2023-07-08T13:41:01;32.80;95.10
19252;DHT22;9760;50.944;5.304;2023-07-08T13:43:32;32.90;95.70
19252;DHT22;9760;50.944;5.304;2023-07-08T13:45:58;32.80;95.50
19252;DHT22;9760;50.944;5.304;2023-07-08T13:48:28;32.60;95.70
19252;DHT22;9760;50.944;5.304;2023-07-08T13:53:43;32.30;97.20
19252;DHT22;9760;50.944;5.304;2023-07-08T13:58:46;32.10;97.60
19252;DHT22;9760;50.944;5.304;2023-07-08T14:01:24;32.20;97.60
19252;DHT22;9760;50.944;5.304;2023-07-08T14:03:52;32.20;98.60
19252;DHT22;9760;50.944;5.304;2023-07-08T14:06:21;32.30;98.40
19252;DHT22;9760;50.944;5.304;2023-07-08T14:08:47;32.30;99.40
19252;DHT22;9760;50.944;5.304;2023-07-08T14:11:13;32.10;99.90
19252;DHT22;9760;50.944;5.304;2023-07-08T14:13:38;32.00;99.60
19252;DHT22;9760;50.944;5.304;2023-07-08T14:16:10;31.80;99.90
19252;DHT22;9760;50.944;5.304;2023-07-08T14:18:42;31.50;99.90
19252;DHT22;9760;50.944;5.304;2023-07-08T14:21:08;31.30;99.90
19252;DHT22;9760;50.944;5.304;2023-07-08T14:23:34;31.10;99.90
19252;DHT22;9760;50.944;5.304;2023-07-08T14:26:00;30.80;99.90
19252;DHT22;9760;50.944;5.304;2023-07-08T14:28:25;30.80;99.90
19252;DHT22;9760;50.944;5.304;2023-07-08T14:30:51;30.90;99.90
19252;DHT22;9760;50.944;5.304;2023-07-08T14:33:17;30.90;99.90
19252;DHT22;9760;50.944;5.304;2023-07-08T14:35:42;30.90;99.90
19252;DHT22;9760;50.944;5.304;2023-07-08T14:38:12;31.10;99.90
19252;DHT22;9760;50.944;5.304;2023-07-08T14:40:40;31.10;99.90
19252;DHT22;9760;50.944;5.304;2023-07-08T14:45:41;31.50;99.90
19252;DHT22;9760;50.944;5.304;2023-07-08T14:48:10;31.80;99.90
19252;DHT22;9760;50.944;5.304;2023-07-08T14:50:37;32.00;99.90
19252;DHT22;9760;50.944;5.304;2023-07-08T14:53:02;32.20;99.90
19252;DHT22;9760;50.944;5.304;2023-07-08T14:55:28;32.40;99.90
19252;DHT22;9760;50.944;5.304;2023-07-08T14:57:54;32.40;99.90
19252;DHT22;9760;50.944;5.304;2023-07-08T15:00:22;32.30;99.90
19252;DHT22;9760;50.944;5.304;2023-07-08T15:02:49;32.20;99.90
19252;DHT22;9760;50.944;5.304;2023-07-08T15:05:22;32.00;99.90
19252;DHT22;9760;50.944;5.304;2023-07-08T15:07:49;31.70;99.90
19252;DHT22;9760;50.944;5.304;2023-07-08T15:10:15;32.20;99.90
19252;DHT22;9760;50.944;5.304;2023-07-08T15:12:41;32.60;99.90
19252;DHT22;9760;50.944;5.304;2023-07-08T15:15:15;32.50;99.90
19252;DHT22;9760;50.944;5.304;2023-07-08T15:17:41;32.50;99.90
19252;DHT22;9760;50.944;5.304;2023-07-08T15:20:11;32.60;99.90
19252;DHT22;9760;50.944;5.304;2023-07-08T15:22:44;32.60;99.90
19252;DHT22;9760;50.944;5.304;2023-07-08T15:25:12;32.50;99.90
19252;DHT22;9760;50.944;5.304;2023-07-08T15:27:39;32.90;99.90
19252;DHT22;9760;50.944;5.304;2023-07-08T15:30:18;33.40;99.90
19252;DHT22;9760;50.944;5.304;2023-07-08T15:32:44;33.80;99.90
19252;DHT22;9760;50.944;5.304;2023-07-08T15:35:25;34.60;99.90
19252;DHT22;9760;50.944;5.304;2023-07-08T15:37:51;35.70;99.90
19252;DHT22;9760;50.944;5.304;2023-07-08T15:40:19;37.00;99.90
19252;DHT22;9760;50.944;5.304;2023-07-08T15:42:50;37.30;99.90
19252;DHT22;9760;50.944;5.304;2023-07-08T15:45:24;37.30;99.90
19252;DHT22;9760;50.944;5.304;2023-07-08T15:47:50;38.00;98.20
19252;DHT22;9760;50.944;5.304;2023-07-08T15:50:19;38.80;97.70
19252;DHT22;9760;50.944;5.304;2023-07-08T15:52:45;38.00;98.30
19252;DHT22;9760;50.944;5.304;2023-07-08T15:55:12;37.50;98.00
19252;DHT22;9760;50.944;5.304;2023-07-08T15:57:47;38.40;97.00
19252;DHT22;9760;50.944;5.304;2023-07-08T16:00:19;38.00;97.50
19252;DHT22;9760;50.944;5.304;2023-07-08T16:02:49;39.30;96.50
19252;DHT22;9760;50.944;5.304;2023-07-08T16:05:17;39.60;95.20
19252;DHT22;9760;50.944;5.304;2023-07-08T16:07:47;40.30;95.20
19252;DHT22;9760;50.944;5.304;2023-07-08T16:10:14;41.00;95.10
19252;DHT22;9760;50.944;5.304;2023-07-08T16:12:40;41.30;93.70
19252;DHT22;9760;50.944;5.304;2023-07-08T16:15:17;41.60;93.00
19252;DHT22;9760;50.944;5.304;2023-07-08T16:17:43;42.30;91.80
19252;DHT22;9760;50.944;5.304;2023-07-08T16:20:21;42.40;90.70
19252;DHT22;9760;50.944;5.304;2023-07-08T16:22:47;40.40;91.00
19252;DHT22;9760;50.944;5.304;2023-07-08T16:25:18;39.00;91.40
19252;DHT22;9760;50.944;5.304;2023-07-08T16:27:47;38.90;91.10
19252;DHT22;9760;50.944;5.304;2023-07-08T16:30:15;38.40;92.60
19252;DHT22;9760;50.944;5.304;2023-07-08T16:32:41;39.40;92.70
19252;DHT22;9760;50.944;5.304;2023-07-08T16:35:13;40.20;93.10
19252;DHT22;9760;50.944;5.304;2023-07-08T16:37:39;41.00;92.10
19252;DHT22;9760;50.944;5.304;2023-07-08T16:40:08;40.00;92.30
19252;DHT22;9760;50.944;5.304;2023-07-08T16:42:38;39.90;92.00
19252;DHT22;9760;50.944;5.304;2023-07-08T16:45:10;39.10;92.40
19252;DHT22;9760;50.944;5.304;2023-07-08T16:47:36;39.70;92.00
19252;DHT22;9760;50.944;5.304;2023-07-08T16:50:02;39.60;92.00
19252;DHT22;9760;50.944;5.304;2023-07-08T16:52:32;39.90;91.80
19252;DHT22;9760;50.944;5.304;2023-07-08T16:54:58;40.90;91.00
19252;DHT22;9760;50.944;5.304;2023-07-08T16:57:24;40.30;90.50